sensor_id;sensor_type;location;lat;lon;timestamp;pressure;altitude;pressure_sealevel;temperature;humidity
24666;BME280;29726;53.532;-1.478;2023-04-09T00:00:44;101514.00;;;16.29;83.79
24666;BME280;29726;53.532;-1.478;2023-04-09T00:03:28;101524.03;;;16.30;83.91
24666;BME280;29726;53.532;-1.478;2023-04-09T00:06:13;101520.91;;;16.28;84.00
24666;BME280;29726;53.532;-1.478;2023-04-09T00:08:57;101513.13;;;16.23;84.00
24666;BME280;29726;53.532;-1.478;2023-04-09T00:11:41;101513.00;;;16.17;84.10
24666;BME280;29726;53.532;-1.478;2023-04-09T00:14:25;101503.50;;;16.15;84.15
24666;BME280;29726;53.532;-1.478;2023-04-09T00:17:09;101510.41;;;16.14;84.14
24666;BME280;29726;53.532;-1.478;2023-04-09T00:19:53;101513.38;;;16.10;84.00
24666;BME280;29726;53.532;-1.478;2023-04-09T00:22:37;101502.78;;;16.05;84.34
24666;BME280;29726;53.532;-1.478;2023-04-09T00:25:21;101493.25;;;16.03;84.15
24666;BME280;29726;53.532;-1.478;2023-04-09T00:28:05;101487.69;;;15.94;84.15
24666;BME280;29726;53.532;-1.478;2023-04-09T00:30:49;101487.69;;;15.94;84.30
24666;BME280;29726;53.532;-1.478;2023-04-09T00:33:33;101490.50;;;15.94;84.31
24666;BME280;29726;53.532;-1.478;2023-04-09T00:36:18;101471.81;;;15.82;84.28
24666;BME280;29726;53.532;-1.478;2023-04-09T00:39:02;101487.69;;;15.94;84.49
24666;BME280;29726;53.532;-1.478;2023-04-09T00:41:45;101478.41;;;15.79;84.31
24666;BME280;29726;53.532;-1.478;2023-04-09T00:44:30;101481.81;;;15.83;84.44
24666;BME280;29726;53.532;-1.478;2023-04-09T00:47:13;101491.06;;;15.83;84.44
24666;BME280;29726;53.532;-1.478;2023-04-09T00:49:59;101487.94;;;15.81;84.62
24666;BME280;29726;53.532;-1.478;2023-04-09T00:52:44;101486.09;;;15.78;84.51
24666;BME280;29726;53.532;-1.478;2023-04-09T00:55:29;101477.81;;;15.75;84.70
24666;BME280;29726;53.532;-1.478;2023-04-09T00:58:13;101457.84;;;15.64;84.53
24666;BME280;29726;53.532;-1.478;2023-04-09T01:00:57;101459.25;;;15.68;84.74
24666;BME280;29726;53.532;-1.478;2023-04-09T01:03:41;101460.97;;;15.66;84.95
24666;BME280;29726;53.532;-1.478;2023-04-09T01:06:41;101453.69;;;15.59;84.68
24666;BME280;29726;53.532;-1.478;2023-04-09T01:09:31;101453.47;;;15.63;84.92
24666;BME280;29726;53.532;-1.478;2023-04-09T01:15:30;101443.06;;;15.54;84.85
24666;BME280;29726;53.532;-1.478;2023-04-09T01:21:15;101428.59;;;15.47;84.98
24666;BME280;29726;53.532;-1.478;2023-04-09T01:27:16;101430.47;;;15.41;85.09
24666;BME280;29726;53.532;-1.478;2023-04-09T01:30:03;101425.66;;;15.41;84.99
24666;BME280;29726;53.532;-1.478;2023-04-09T01:32:48;101411.63;;;15.32;84.98
24666;BME280;29726;53.532;-1.478;2023-04-09T01:35:33;101418.63;;;15.37;85.23
24666;BME280;29726;53.532;-1.478;2023-04-09T01:38:19;101413.97;;;15.34;85.00
24666;BME280;29726;53.532;-1.478;2023-04-09T01:41:05;101397.88;;;15.25;85.35
24666;BME280;29726;53.532;-1.478;2023-04-09T01:43:51;101421.00;;;15.29;85.35
24666;BME280;29726;53.532;-1.478;2023-04-09T01:46:36;101404.16;;;15.20;85.38
24666;BME280;29726;53.532;-1.478;2023-04-09T01:49:22;101419.78;;;15.21;85.31
24666;BME280;29726;53.532;-1.478;2023-04-09T01:52:06;101410.75;;;15.17;85.24
24666;BME280;29726;53.532;-1.478;2023-04-09T01:54:51;101416.25;;;15.12;85.37
24666;BME280;29726;53.532;-1.478;2023-04-09T01:57:35;101412.47;;;15.15;85.85
24666;BME280;29726;53.532;-1.478;2023-04-09T02:00:19;101411.56;;;15.09;85.50
24666;BME280;29726;53.532;-1.478;2023-04-09T02:06:08;101396.59;;;15.03;85.69
24666;BME280;29726;53.532;-1.478;2023-04-09T02:09:23;101355.81;;;14.75;85.38
24666;BME280;29726;53.532;-1.478;2023-04-09T02:12:11;101384.03;;;14.90;85.38
24666;BME280;29726;53.532;-1.478;2023-04-09T02:14:57;101380.13;;;14.87;85.69
24666;BME280;29726;53.532;-1.478;2023-04-09T02:17:44;101378.41;;;14.90;85.69
24666;BME280;29726;53.532;-1.478;2023-04-09T02:20:28;101367.97;;;14.81;86.01
24666;BME280;29726;53.532;-1.478;2023-04-09T02:23:11;101387.16;;;14.83;85.82
24666;BME280;29726;53.532;-1.478;2023-04-09T02:25:55;101382.03;;;14.81;86.02
24666;BME280;29726;53.532;-1.478;2023-04-09T02:28:39;101380.78;;;14.73;86.40
24666;BME280;29726;53.532;-1.478;2023-04-09T02:31:23;101385.94;;;14.75;86.29
24666;BME280;29726;53.532;-1.478;2023-04-09T02:34:07;101370.38;;;14.65;86.19
24666;BME280;29726;53.532;-1.478;2023-04-09T02:36:51;101388.31;;;14.67;86.13
24666;BME280;29726;53.532;-1.478;2023-04-09T02:39:36;101380.38;;;14.66;86.40
24666;BME280;29726;53.532;-1.478;2023-04-09T02:42:20;101376.94;;;14.62;86.75
24666;BME280;29726;53.532;-1.478;2023-04-09T02:45:04;101365.56;;;14.56;86.53
24666;BME280;29726;53.532;-1.478;2023-04-09T02:47:49;101359.97;;;14.56;86.69
24666;BME280;29726;53.532;-1.478;2023-04-09T02:50:33;101352.34;;;14.48;87.05
24666;BME280;29726;53.532;-1.478;2023-04-09T02:53:16;101353.59;;;14.47;87.00
24666;BME280;29726;53.532;-1.478;2023-04-09T02:56:01;101361.06;;;14.50;87.05
24666;BME280;29726;53.532;-1.478;2023-04-09T02:58:44;101365.13;;;14.49;87.20
24666;BME280;29726;53.532;-1.478;2023-04-09T03:01:29;101357.47;;;14.49;87.33
24666;BME280;29726;53.532;-1.478;2023-04-09T03:04:13;101359.66;;;14.45;87.13
24666;BME280;29726;53.532;-1.478;2023-04-09T03:06:57;101352.81;;;14.46;87.83
24666;BME280;29726;53.532;-1.478;2023-04-09T03:09:41;101359.66;;;14.45;88.08
24666;BME280;29726;53.532;-1.478;2023-04-09T03:12:25;101365.63;;;14.38;87.42
24666;BME280;29726;53.532;-1.478;2023-04-09T03:15:09;101363.13;;;14.40;87.91
24666;BME280;29726;53.532;-1.478;2023-04-09T03:17:54;101349.72;;;14.35;88.06
24666;BME280;29726;53.532;-1.478;2023-04-09T03:20:37;101345.06;;;14.32;88.04
24666;BME280;29726;53.532;-1.478;2023-04-09T03:23:22;101354.56;;;14.35;87.92
24666;BME280;29726;53.532;-1.478;2023-04-09T03:26:06;101356.09;;;14.36;88.39
24666;BME280;29726;53.532;-1.478;2023-04-09T03:28:50;101353.00;;;14.34;88.67
24666;BME280;29726;53.532;-1.478;2023-04-09T03:31:34;101364.22;;;14.34;88.68
24666;BME280;29726;53.532;-1.478;2023-04-09T03:34:18;101361.59;;;14.30;88.88
24666;BME280;29726;53.532;-1.478;2023-04-09T03:37:02;101352.72;;;14.23;88.90
24666;BME280;29726;53.532;-1.478;2023-04-09T03:39:46;101358.66;;;14.25;89.36
24666;BME280;29726;53.532;-1.478;2023-04-09T03:42:30;101348.06;;;14.20;88.79
24666;BME280;29726;53.532;-1.478;2023-04-09T03:45:14;101339.44;;;14.23;89.29
24666;BME280;29726;53.532;-1.478;2023-04-09T03:47:57;101295.06;;;13.95;89.76
24666;BME280;29726;53.532;-1.478;2023-04-09T03:50:41;101332.63;;;14.15;89.75
24666;BME280;29726;53.532;-1.478;2023-04-09T03:53:25;101336.97;;;14.16;89.53
24666;BME280;29726;53.532;-1.478;2023-04-09T03:56:09;101337.78;;;14.17;89.88
24666;BME280;29726;53.532;-1.478;2023-04-09T03:58:53;101333.84;;;14.14;90.28
24666;BME280;29726;53.532;-1.478;2023-04-09T04:01:38;101329.94;;;14.12;90.66
24666;BME280;29726;53.532;-1.478;2023-04-09T04:04:22;101327.13;;;14.12;90.64
24666;BME280;29726;53.532;-1.478;2023-04-09T04:07:05;101323.25;;;14.09;90.89
24666;BME280;29726;53.532;-1.478;2023-04-09T04:09:51;101317.47;;;14.04;90.71
24666;BME280;29726;53.532;-1.478;2023-04-09T04:12:35;101334.47;;;14.09;91.17
24666;BME280;29726;53.532;-1.478;2023-04-09T04:15:19;101327.47;;;14.05;91.52
24666;BME280;29726;53.532;-1.478;2023-04-09T04:18:03;101315.31;;;13.99;90.96
24666;BME280;29726;53.532;-1.478;2023-04-09T04:20:46;101316.38;;;14.01;91.30
24666;BME280;29726;53.532;-1.478;2023-04-09T04:23:32;101313.56;;;14.01;91.26
24666;BME280;29726;53.532;-1.478;2023-04-09T04:26:17;101306.09;;;13.98;91.10
24666;BME280;29726;53.532;-1.478;2023-04-09T04:29:01;101270.47;;;13.72;90.58
24666;BME280;29726;53.532;-1.478;2023-04-09T04:31:45;101307.34;;;13.97;90.63
24666;BME280;29726;53.532;-1.478;2023-04-09T04:34:28;101305.63;;;14.00;91.44
24666;BME280;29726;53.532;-1.478;2023-04-09T04:37:13;101289.75;;;13.97;91.70
24666;BME280;29726;53.532;-1.478;2023-04-09T04:39:57;101272.59;;;13.86;91.48
24666;BME280;29726;53.532;-1.478;2023-04-09T04:42:40;101289.44;;;13.95;91.57
24666;BME280;29726;53.532;-1.478;2023-04-09T04:45:25;101277.44;;;13.85;91.91
24666;BME280;29726;53.532;-1.478;2023-04-09T04:48:08;101287.53;;;13.92;91.89
24666;BME280;29726;53.532;-1.478;2023-04-09T04:50:57;101280.38;;;13.91;92.09
24666;BME280;29726;53.532;-1.478;2023-04-09T04:53:41;101274.00;;;13.90;91.93
24666;BME280;29726;53.532;-1.478;2023-04-09T04:56:25;101281.31;;;13.88;92.41
24666;BME280;29726;53.532;-1.478;2023-04-09T04:59:09;101270.09;;;13.88;92.35
24666;BME280;29726;53.532;-1.478;2023-04-09T05:01:53;101276.66;;;13.85;92.45
24666;BME280;29726;53.532;-1.478;2023-04-09T05:04:37;101278.69;;;13.84;92.16
24666;BME280;29726;53.532;-1.478;2023-04-09T05:07:21;101264.03;;;13.80;92.47
24666;BME280;29726;53.532;-1.478;2023-04-09T05:10:05;101260.00;;;13.81;92.85
24666;BME280;29726;53.532;-1.478;2023-04-09T05:12:50;101254.53;;;13.78;93.02
24666;BME280;29726;53.532;-1.478;2023-04-09T05:15:37;101254.06;;;13.79;93.10
24666;BME280;29726;53.532;-1.478;2023-04-09T05:18:22;101245.31;;;13.77;92.83
24666;BME280;29726;53.532;-1.478;2023-04-09T05:21:06;101246.88;;;13.78;92.04
24666;BME280;29726;53.532;-1.478;2023-04-09T05:23:49;101229.78;;;13.67;92.96
24666;BME280;29726;53.532;-1.478;2023-04-09T05:26:33;101261.72;;;13.79;92.66
24666;BME280;29726;53.532;-1.478;2023-04-09T05:29:18;101250.63;;;13.75;93.07
24666;BME280;29726;53.532;-1.478;2023-04-09T05:32:02;101254.38;;;13.72;93.16
24666;BME280;29726;53.532;-1.478;2023-04-09T05:34:46;101246.28;;;13.74;93.07
24666;BME280;29726;53.532;-1.478;2023-04-09T05:37:30;101235.69;;;13.69;93.15
24666;BME280;29726;53.532;-1.478;2023-04-09T05:40:14;101232.56;;;13.67;93.28
24666;BME280;29726;53.532;-1.478;2023-04-09T05:42:58;101234.59;;;13.76;93.58
24666;BME280;29726;53.532;-1.478;2023-04-09T05:45:42;101246.56;;;13.76;93.45
24666;BME280;29726;53.532;-1.478;2023-04-09T05:48:26;101232.72;;;13.73;93.43
24666;BME280;29726;53.532;-1.478;2023-04-09T05:51:10;101220.41;;;13.70;94.15
24666;BME280;29726;53.532;-1.478;2023-04-09T05:53:54;101207.63;;;13.69;94.53
24666;BME280;29726;53.532;-1.478;2023-04-09T05:56:38;101207.63;;;13.69;94.25
24666;BME280;29726;53.532;-1.478;2023-04-09T05:59:22;101190.84;;;13.51;94.53
24666;BME280;29726;53.532;-1.478;2023-04-09T06:02:06;101207.63;;;13.69;94.00
24666;BME280;29726;53.532;-1.478;2023-04-09T06:04:50;101206.69;;;13.72;94.43
24666;BME280;29726;53.532;-1.478;2023-04-09T06:07:34;101197.66;;;13.68;94.62
24666;BME280;29726;53.532;-1.478;2023-04-09T06:10:18;101193.59;;;13.69;94.68
24666;BME280;29726;53.532;-1.478;2023-04-09T06:13:02;101152.84;;;13.41;94.23
24666;BME280;29726;53.532;-1.478;2023-04-09T06:15:46;101174.31;;;13.62;95.13
24666;BME280;29726;53.532;-1.478;2023-04-09T06:18:31;101169.94;;;13.61;95.01
24666;BME280;29726;53.532;-1.478;2023-04-09T06:21:15;101173.19;;;13.60;94.90
24666;BME280;29726;53.532;-1.478;2023-04-09T06:23:59;101165.28;;;13.58;95.33
24666;BME280;29726;53.532;-1.478;2023-04-09T06:26:44;101171.94;;;13.61;95.15
24666;BME280;29726;53.532;-1.478;2023-04-09T06:29:28;101170.84;;;13.67;94.75
24666;BME280;29726;53.532;-1.478;2023-04-09T06:32:12;101172.41;;;13.68;95.78
24666;BME280;29726;53.532;-1.478;2023-04-09T06:34:56;101181.59;;;13.69;95.80
24666;BME280;29726;53.532;-1.478;2023-04-09T06:37:40;101161.53;;;13.61;96.47
24666;BME280;29726;53.532;-1.478;2023-04-09T06:40:24;101159.97;;;13.60;96.47
24666;BME280;29726;53.532;-1.478;2023-04-09T06:43:08;101156.84;;;13.58;96.52
24666;BME280;29726;53.532;-1.478;2023-04-09T06:45:52;101177.22;;;13.68;96.93
24666;BME280;29726;53.532;-1.478;2023-04-09T06:48:36;101164.03;;;13.59;95.69
24666;BME280;29726;53.532;-1.478;2023-04-09T06:51:20;101160.28;;;13.62;96.02
24666;BME280;29726;53.532;-1.478;2023-04-09T06:54:04;101112.50;;;13.39;96.67
24666;BME280;29726;53.532;-1.478;2023-04-09T06:56:48;101159.03;;;13.63;96.35
24666;BME280;29726;53.532;-1.478;2023-04-09T06:59:32;101158.28;;;13.54;95.86
24666;BME280;29726;53.532;-1.478;2023-04-09T07:02:16;101177.41;;;13.64;96.36
24666;BME280;29726;53.532;-1.478;2023-04-09T07:05:00;101179.13;;;13.62;95.86
24666;BME280;29726;53.532;-1.478;2023-04-09T07:07:44;101179.13;;;13.62;96.09
24666;BME280;29726;53.532;-1.478;2023-04-09T07:10:28;101178.66;;;13.54;96.15
24666;BME280;29726;53.532;-1.478;2023-04-09T07:13:12;101193.44;;;13.64;96.00
24666;BME280;29726;53.532;-1.478;2023-04-09T07:15:56;101205.16;;;13.62;96.24
24666;BME280;29726;53.532;-1.478;2023-04-09T07:18:39;101207.47;;;13.64;96.40
24666;BME280;29726;53.532;-1.478;2023-04-09T07:21:23;101194.88;;;13.59;97.08
24666;BME280;29726;53.532;-1.478;2023-04-09T07:24:08;101191.44;;;13.55;97.26
24666;BME280;29726;53.532;-1.478;2023-04-09T07:26:53;101218.88;;;13.60;96.69
24666;BME280;29726;53.532;-1.478;2023-04-09T07:29:37;101202.50;;;13.59;96.35
24666;BME280;29726;53.532;-1.478;2023-04-09T07:32:22;101189.72;;;13.58;96.47
24666;BME280;29726;53.532;-1.478;2023-04-09T07:35:07;101202.06;;;13.60;96.32
24666;BME280;29726;53.532;-1.478;2023-04-09T07:37:52;101179.75;;;13.57;97.25
24666;BME280;29726;53.532;-1.478;2023-04-09T07:40:36;101190.38;;;13.53;96.81
24666;BME280;29726;53.532;-1.478;2023-04-09T07:43:20;101187.09;;;13.54;96.88
24666;BME280;29726;53.532;-1.478;2023-04-09T07:46:05;101178.66;;;13.54;96.28
24666;BME280;29726;53.532;-1.478;2023-04-09T07:48:49;101184.91;;;13.58;96.43
24666;BME280;29726;53.532;-1.478;2023-04-09T07:51:34;101188.19;;;13.57;96.64
24666;BME280;29726;53.532;-1.478;2023-04-09T07:54:18;101190.38;;;13.53;96.29
24666;BME280;29726;53.532;-1.478;2023-04-09T07:57:04;101183.34;;;13.57;96.97
24666;BME280;29726;53.532;-1.478;2023-04-09T07:59:48;101170.56;;;13.56;96.94
24666;BME280;29726;53.532;-1.478;2023-04-09T08:02:32;101174.63;;;13.55;96.95
24666;BME280;29726;53.532;-1.478;2023-04-09T08:05:16;101181.00;;;13.56;96.63
24666;BME280;29726;53.532;-1.478;2023-04-09T08:08:00;101187.38;;;13.56;96.46
24666;BME280;29726;53.532;-1.478;2023-04-09T08:10:44;101167.13;;;13.52;97.28
24666;BME280;29726;53.532;-1.478;2023-04-09T08:13:27;101170.75;;;13.53;96.72
24666;BME280;29726;53.532;-1.478;2023-04-09T08:16:11;101174.31;;;13.53;96.73
24666;BME280;29726;53.532;-1.478;2023-04-09T08:18:56;101163.56;;;13.52;97.46
24666;BME280;29726;53.532;-1.478;2023-04-09T08:21:40;101165.59;;;13.51;97.21
24666;BME280;29726;53.532;-1.478;2023-04-09T08:24:27;101166.38;;;13.52;97.73
24666;BME280;29726;53.532;-1.478;2023-04-09T08:27:11;101157.97;;;13.43;97.50
24666;BME280;29726;53.532;-1.478;2023-04-09T08:29:55;101169.19;;;13.52;97.46
24666;BME280;29726;53.532;-1.478;2023-04-09T08:32:39;101151.09;;;13.44;97.78
24666;BME280;29726;53.532;-1.478;2023-04-09T08:35:23;101184.63;;;13.47;97.74
24666;BME280;29726;53.532;-1.478;2023-04-09T08:38:07;101173.72;;;13.40;97.67
24666;BME280;29726;53.532;-1.478;2023-04-09T08:40:51;101174.50;;;13.41;97.47
24666;BME280;29726;53.532;-1.478;2023-04-09T08:43:36;101194.13;;;13.50;97.38
24666;BME280;29726;53.532;-1.478;2023-04-09T08:46:22;101196.44;;;13.51;97.57
24666;BME280;29726;53.532;-1.478;2023-04-09T08:49:07;101194.59;;;13.48;97.28
24666;BME280;29726;53.532;-1.478;2023-04-09T08:51:52;101200.97;;;13.49;97.35
24666;BME280;29726;53.532;-1.478;2023-04-09T08:54:36;101193.63;;;13.51;97.63
24666;BME280;29726;53.532;-1.478;2023-04-09T08:57:20;101193.03;;;13.47;97.43
24666;BME280;29726;53.532;-1.478;2023-04-09T09:00:05;101191.16;;;13.44;97.69
24666;BME280;29726;53.532;-1.478;2023-04-09T09:05:47;101186.16;;;13.48;97.82
24666;BME280;29726;53.532;-1.478;2023-04-09T09:08:32;101173.41;;;13.47;97.92
24666;BME280;29726;53.532;-1.478;2023-04-09T09:11:25;101173.41;;;13.47;97.66
24666;BME280;29726;53.532;-1.478;2023-04-09T09:14:15;101184.75;;;13.53;97.93
24666;BME280;29726;53.532;-1.478;2023-04-09T09:19:45;101205.66;;;13.52;97.73
24666;BME280;29726;53.532;-1.478;2023-04-09T09:22:47;101197.06;;;13.55;98.62
24666;BME280;29726;53.532;-1.478;2023-04-09T09:25:40;101193.00;;;13.56;98.95
24666;BME280;29726;53.532;-1.478;2023-04-09T09:28:33;101154.22;;;13.55;98.75
24666;BME280;29726;53.532;-1.478;2023-04-09T09:31:20;101142.84;;;13.58;98.67
24666;BME280;29726;53.532;-1.478;2023-04-09T09:34:07;101144.09;;;13.57;98.53
24666;BME280;29726;53.532;-1.478;2023-04-09T09:36:51;101136.28;;;13.52;98.77
24666;BME280;29726;53.532;-1.478;2023-04-09T09:39:42;101136.28;;;13.52;98.55
24666;BME280;29726;53.532;-1.478;2023-04-09T09:42:29;101142.94;;;13.64;98.38
24666;BME280;29726;53.532;-1.478;2023-04-09T09:45:17;101135.63;;;13.66;98.59
24666;BME280;29726;53.532;-1.478;2023-04-09T09:48:04;101140.44;;;13.66;98.72
24666;BME280;29726;53.532;-1.478;2023-04-09T09:50:50;101128.00;;;13.58;98.82
24666;BME280;29726;53.532;-1.478;2023-04-09T09:53:43;101148.25;;;13.71;98.87
24666;BME280;29726;53.532;-1.478;2023-04-09T09:56:35;101133.28;;;13.65;98.88
24666;BME280;29726;53.532;-1.478;2023-04-09T09:59:22;101125.16;;;13.67;99.35
24666;BME280;29726;53.532;-1.478;2023-04-09T10:02:17;101128.59;;;13.71;99.13
24666;BME280;29726;53.532;-1.478;2023-04-09T10:05:03;101124.53;;;13.72;99.28
24666;BME280;29726;53.532;-1.478;2023-04-09T10:07:49;101115.97;;;13.66;98.77
24666;BME280;29726;53.532;-1.478;2023-04-09T10:10:33;101109.88;;;13.68;99.28
24666;BME280;29726;53.532;-1.478;2023-04-09T10:13:24;101115.03;;;13.69;99.20
24666;BME280;29726;53.532;-1.478;2023-04-09T10:16:10;101111.75;;;13.71;99.54
24666;BME280;29726;53.532;-1.478;2023-04-09T10:18:55;101106.44;;;13.73;99.31
24666;BME280;29726;53.532;-1.478;2023-04-09T10:21:53;101098.03;;;13.73;99.41
24666;BME280;29726;53.532;-1.478;2023-04-09T10:24:40;101089.41;;;13.76;99.49
24666;BME280;29726;53.532;-1.478;2023-04-09T10:27:25;101082.25;;;13.75;99.57
24666;BME280;29726;53.532;-1.478;2023-04-09T10:30:32;101082.84;;;13.79;99.81
24666;BME280;29726;53.532;-1.478;2023-04-09T10:33:21;101079.75;;;13.77;99.80
24666;BME280;29726;53.532;-1.478;2023-04-09T10:36:10;101071.00;;;13.84;99.96
24666;BME280;29726;53.532;-1.478;2023-04-09T10:38:54;101055.88;;;13.82;100.00
24666;BME280;29726;53.532;-1.478;2023-04-09T10:41:39;101053.38;;;13.84;100.00
24666;BME280;29726;53.532;-1.478;2023-04-09T10:44:26;101043.41;;;13.83;99.88
24666;BME280;29726;53.532;-1.478;2023-04-09T10:47:10;101039.19;;;13.87;100.00
24666;BME280;29726;53.532;-1.478;2023-04-09T10:49:55;101030.09;;;13.92;100.00
24666;BME280;29726;53.532;-1.478;2023-04-09T10:52:39;101019.53;;;13.87;100.00
24666;BME280;29726;53.532;-1.478;2023-04-09T10:55:40;101036.13;;;14.00;100.00
24666;BME280;29726;53.532;-1.478;2023-04-09T10:58:25;101030.31;;;14.03;100.00
24666;BME280;29726;53.532;-1.478;2023-04-09T11:01:09;101025.50;;;14.04;100.00
24666;BME280;29726;53.532;-1.478;2023-04-09T11:04:07;101019.72;;;14.07;100.00
24666;BME280;29726;53.532;-1.478;2023-04-09T11:06:53;101010.63;;;14.12;100.00
24666;BME280;29726;53.532;-1.478;2023-04-09T11:09:40;100999.69;;;14.14;100.00
24666;BME280;29726;53.532;-1.478;2023-04-09T11:12:24;100995.03;;;14.11;100.00
24666;BME280;29726;53.532;-1.478;2023-04-09T11:15:18;101005.53;;;14.25;100.00
24666;BME280;29726;53.532;-1.478;2023-04-09T11:18:03;101000.81;;;14.31;100.00
24666;BME280;29726;53.532;-1.478;2023-04-09T11:20:53;100987.38;;;14.35;100.00
24666;BME280;29726;53.532;-1.478;2023-04-09T11:23:37;100989.03;;;14.42;99.57
24666;BME280;29726;53.532;-1.478;2023-04-09T11:26:24;100976.72;;;14.39;99.40
24666;BME280;29726;53.532;-1.478;2023-04-09T11:29:09;100989.72;;;14.51;98.13
24666;BME280;29726;53.532;-1.478;2023-04-09T11:31:53;100981.19;;;14.60;97.59
24666;BME280;29726;53.532;-1.478;2023-04-09T11:34:37;100970.53;;;14.64;97.42
24666;BME280;29726;53.532;-1.478;2023-04-09T11:37:22;100986.34;;;14.76;97.49
24666;BME280;29726;53.532;-1.478;2023-04-09T11:40:07;100972.97;;;14.86;97.34
24666;BME280;29726;53.532;-1.478;2023-04-09T11:42:56;100980.59;;;14.99;97.38
24666;BME280;29726;53.532;-1.478;2023-04-09T11:45:40;100988.72;;;15.12;97.34
24666;BME280;29726;53.532;-1.478;2023-04-09T11:48:25;100987.56;;;15.18;97.42
24666;BME280;29726;53.532;-1.478;2023-04-09T11:51:10;100971.34;;;15.28;97.51
24666;BME280;29726;53.532;-1.478;2023-04-09T11:53:54;100988.78;;;15.46;97.34
24666;BME280;29726;53.532;-1.478;2023-04-09T11:56:37;100978.31;;;15.47;97.24
24666;BME280;29726;53.532;-1.478;2023-04-09T11:59:21;100958.34;;;15.45;97.36
24666;BME280;29726;53.532;-1.478;2023-04-09T12:02:06;100972.22;;;15.68;97.36
24666;BME280;29726;53.532;-1.478;2023-04-09T12:04:50;100962.16;;;15.82;97.19
24666;BME280;29726;53.532;-1.478;2023-04-09T12:07:34;100951.69;;;15.82;97.22
24666;BME280;29726;53.532;-1.478;2023-04-09T12:10:25;100957.72;;;15.95;97.21
24666;BME280;29726;53.532;-1.478;2023-04-09T12:13:13;100921.28;;;15.86;97.12
24666;BME280;29726;53.532;-1.478;2023-04-09T12:15:59;100939.78;;;16.13;97.28
24666;BME280;29726;53.532;-1.478;2023-04-09T12:18:46;100948.63;;;16.26;97.26
24666;BME280;29726;53.532;-1.478;2023-04-09T12:21:53;100932.63;;;16.37;97.08
24666;BME280;29726;53.532;-1.478;2023-04-09T12:24:39;100941.44;;;16.45;97.24
24666;BME280;29726;53.532;-1.478;2023-04-09T12:27:23;100931.25;;;16.53;97.40
24666;BME280;29726;53.532;-1.478;2023-04-09T12:30:07;100928.53;;;16.64;97.27
24666;BME280;29726;53.532;-1.478;2023-04-09T12:32:52;100918.03;;;16.64;97.46
24666;BME280;29726;53.532;-1.478;2023-04-09T12:35:36;100929.97;;;16.79;97.34
24666;BME280;29726;53.532;-1.478;2023-04-09T12:38:20;100922.09;;;16.88;97.52
24666;BME280;29726;53.532;-1.478;2023-04-09T12:41:04;100922.41;;;16.96;97.47
24666;BME280;29726;53.532;-1.478;2023-04-09T12:43:49;100924.56;;;17.06;97.50
24666;BME280;29726;53.532;-1.478;2023-04-09T12:46:33;100918.16;;;17.11;97.76
24666;BME280;29726;53.532;-1.478;2023-04-09T12:49:17;100913.59;;;17.19;97.58
24666;BME280;29726;53.532;-1.478;2023-04-09T12:52:01;100917.00;;;17.29;97.50
24666;BME280;29726;53.532;-1.478;2023-04-09T12:54:45;100902.16;;;17.34;97.47
24666;BME280;29726;53.532;-1.478;2023-04-09T12:57:29;100905.25;;;17.36;97.51
24666;BME280;29726;53.532;-1.478;2023-04-09T13:00:13;100903.78;;;17.46;97.60
24666;BME280;29726;53.532;-1.478;2023-04-09T13:02:58;100899.94;;;17.49;97.67
24666;BME280;29726;53.532;-1.478;2023-04-09T13:05:42;100908.72;;;17.56;97.64
24666;BME280;29726;53.532;-1.478;2023-04-09T13:08:26;100895.63;;;17.59;97.50
24666;BME280;29726;53.532;-1.478;2023-04-09T13:11:10;100908.28;;;17.69;97.63
24666;BME280;29726;53.532;-1.478;2023-04-09T13:13:54;100901.88;;;17.74;97.69
24666;BME280;29726;53.532;-1.478;2023-04-09T13:16:39;100902.41;;;17.83;97.63
24666;BME280;29726;53.532;-1.478;2023-04-09T13:19:23;100890.09;;;17.86;97.59
24666;BME280;29726;53.532;-1.478;2023-04-09T13:22:07;100882.16;;;17.90;97.74
24666;BME280;29726;53.532;-1.478;2023-04-09T13:24:51;100880.09;;;17.96;97.73
24666;BME280;29726;53.532;-1.478;2023-04-09T13:27:35;100883.75;;;18.02;97.88
24666;BME280;29726;53.532;-1.478;2023-04-09T13:30:23;100882.97;;;18.07;97.85
24666;BME280;29726;53.532;-1.478;2023-04-09T13:33:07;100875.03;;;18.11;97.83
24666;BME280;29726;53.532;-1.478;2023-04-09T13:35:51;100872.97;;;18.17;97.62
24666;BME280;29726;53.532;-1.478;2023-04-09T13:38:35;100867.84;;;18.21;97.65
24666;BME280;29726;53.532;-1.478;2023-04-09T13:41:19;100864.56;;;18.28;97.45
24666;BME280;29726;53.532;-1.478;2023-04-09T13:44:03;100858.38;;;18.30;97.83
24666;BME280;29726;53.532;-1.478;2023-04-09T13:46:47;100848.38;;;18.34;97.81
24666;BME280;29726;53.532;-1.478;2023-04-09T13:49:31;100852.75;;;18.41;97.64
24666;BME280;29726;53.532;-1.478;2023-04-09T13:52:15;100836.03;;;18.43;97.76
24666;BME280;29726;53.532;-1.478;2023-04-09T13:55:00;100837.06;;;18.50;97.77
24666;BME280;29726;53.532;-1.478;2023-04-09T13:57:44;100829.84;;;18.49;98.06
24666;BME280;29726;53.532;-1.478;2023-04-09T14:00:27;100828.31;;;18.54;97.78
24666;BME280;29726;53.532;-1.478;2023-04-09T14:03:11;100824.47;;;18.57;97.63
24666;BME280;29726;53.532;-1.478;2023-04-09T14:05:56;100823.69;;;18.62;97.76
24666;BME280;29726;53.532;-1.478;2023-04-09T14:08:41;100825.72;;;18.67;97.60
24666;BME280;29726;53.532;-1.478;2023-04-09T14:11:25;100832.69;;;18.71;97.13
24666;BME280;29726;53.532;-1.478;2023-04-09T14:14:09;100836.28;;;18.72;96.79
24666;BME280;29726;53.532;-1.478;2023-04-09T14:16:53;100827.28;;;18.73;96.88
24666;BME280;29726;53.532;-1.478;2023-04-09T14:19:37;100813.91;;;18.74;96.93
24666;BME280;29726;53.532;-1.478;2023-04-09T14:22:21;100817.75;;;18.82;97.04
24666;BME280;29726;53.532;-1.478;2023-04-09T14:25:05;100817.75;;;18.82;96.85
24666;BME280;29726;53.532;-1.478;2023-04-09T14:27:50;100818.28;;;18.80;97.00
24666;BME280;29726;53.532;-1.478;2023-04-09T14:30:34;100820.09;;;18.83;96.92